sensor_id;sensor_type;location;lat;lon;timestamp;P1;durP1;ratioP1;P2;durP2;ratioP2
24137;SDS011;17947;50.672;6.076;2023-02-28T00:00:17;2.53;;;1.33;;
24137;SDS011;17947;50.672;6.076;2023-02-28T00:02:44;1.80;;;1.20;;
24137;SDS011;17947;50.672;6.076;2023-02-28T00:05:11;2.83;;;1.48;;
24137;SDS011;17947;50.672;6.076;2023-02-28T00:07:37;1.65;;;1.50;;
24137;SDS011;17947;50.672;6.076;2023-02-28T00:10:04;2.28;;;1.27;;
24137;SDS011;17947;50.672;6.076;2023-02-28T00:12:31;1.98;;;1.45;;
24137;SDS011;17947;50.672;6.076;2023-02-28T00:14:57;3.08;;;1.25;;
24137;SDS011;17947;50.672;6.076;2023-02-28T00:17:23;1.25;;;1.15;;
24137;SDS011;17947;50.672;6.076;2023-02-28T00:19:50;1.75;;;1.08;;
24137;SDS011;17947;50.672;6.076;2023-02-28T00:22:17;3.00;;;1.20;;
24137;SDS011;17947;50.672;6.076;2023-02-28T00:24:43;1.70;;;1.20;;
24137;SDS011;17947;50.672;6.076;2023-02-28T00:27:10;1.48;;;1.25;;
24137;SDS011;17947;50.672;6.076;2023-02-28T00:29:36;1.42;;;1.25;;
24137;SDS011;17947;50.672;6.076;2023-02-28T00:32:02;1.55;;;1.20;;
24137;SDS011;17947;50.672;6.076;2023-02-28T00:34:29;2.70;;;1.30;;
24137;SDS011;17947;50.672;6.076;2023-02-28T00:36:55;1.85;;;1.23;;
24137;SDS011;17947;50.672;6.076;2023-02-28T00:39:21;1.45;;;1.20;;
24137;SDS011;17947;50.672;6.076;2023-02-28T00:41:47;2.55;;;1.30;;
24137;SDS011;17947;50.672;6.076;2023-02-28T00:44:13;1.70;;;1.33;;
24137;SDS011;17947;50.672;6.076;2023-02-28T00:46:39;1.52;;;1.27;;
24137;SDS011;17947;50.672;6.076;2023-02-28T00:49:05;2.00;;;1.30;;
24137;SDS011;17947;50.672;6.076;2023-02-28T00:51:31;1.73;;;1.20;;
24137;SDS011;17947;50.672;6.076;2023-02-28T00:53:57;1.30;;;1.13;;
24137;SDS011;17947;50.672;6.076;2023-02-28T00:56:23;2.58;;;1.33;;
24137;SDS011;17947;50.672;6.076;2023-02-28T00:58:49;1.38;;;1.25;;
24137;SDS011;17947;50.672;6.076;2023-02-28T01:01:15;2.05;;;1.40;;
24137;SDS011;17947;50.672;6.076;2023-02-28T01:03:41;2.45;;;1.45;;
24137;SDS011;17947;50.672;6.076;2023-02-28T01:06:07;1.85;;;1.42;;
24137;SDS011;17947;50.672;6.076;2023-02-28T01:08:33;1.52;;;1.30;;
24137;SDS011;17947;50.672;6.076;2023-02-28T01:11:06;2.22;;;1.30;;
24137;SDS011;17947;50.672;6.076;2023-02-28T01:13:32;1.40;;;1.20;;
24137;SDS011;17947;50.672;6.076;2023-02-28T01:15:58;1.20;;;1.10;;
24137;SDS011;17947;50.672;6.076;2023-02-28T01:18:24;1.63;;;1.33;;
24137;SDS011;17947;50.672;6.076;2023-02-28T01:20:50;2.17;;;1.50;;
24137;SDS011;17947;50.672;6.076;2023-02-28T01:23:18;1.73;;;1.23;;
24137;SDS011;17947;50.672;6.076;2023-02-28T01:25:44;1.30;;;1.20;;
24137;SDS011;17947;50.672;6.076;2023-02-28T01:28:10;1.95;;;1.20;;
24137;SDS011;17947;50.672;6.076;2023-02-28T01:30:37;1.77;;;1.20;;
24137;SDS011;17947;50.672;6.076;2023-02-28T01:33:03;1.38;;;1.10;;
24137;SDS011;17947;50.672;6.076;2023-02-28T01:35:31;1.63;;;1.27;;
24137;SDS011;17947;50.672;6.076;2023-02-28T01:37:57;1.10;;;0.95;;
24137;SDS011;17947;50.672;6.076;2023-02-28T01:40:23;1.90;;;1.10;;
24137;SDS011;17947;50.672;6.076;2023-02-28T01:42:49;1.25;;;1.15;;
24137;SDS011;17947;50.672;6.076;2023-02-28T01:45:31;1.58;;;1.17;;
24137;SDS011;17947;50.672;6.076;2023-02-28T01:47:58;1.92;;;1.42;;
24137;SDS011;17947;50.672;6.076;2023-02-28T01:50:27;1.50;;;1.13;;
24137;SDS011;17947;50.672;6.076;2023-02-28T01:52:54;1.67;;;1.05;;
24137;SDS011;17947;50.672;6.076;2023-02-28T01:55:21;2.45;;;1.20;;
24137;SDS011;17947;50.672;6.076;2023-02-28T01:57:49;1.40;;;1.30;;
24137;SDS011;17947;50.672;6.076;2023-02-28T02:00:17;1.83;;;1.50;;
24137;SDS011;17947;50.672;6.076;2023-02-28T02:02:46;1.40;;;1.30;;
24137;SDS011;17947;50.672;6.076;2023-02-28T02:05:19;1.13;;;1.02;;
24137;SDS011;17947;50.672;6.076;2023-02-28T02:07:46;1.60;;;1.15;;
24137;SDS011;17947;50.672;6.076;2023-02-28T02:10:17;1.60;;;1.20;;
24137;SDS011;17947;50.672;6.076;2023-02-28T02:18:13;1.60;;;1.20;;
24137;SDS011;17947;50.672;6.076;2023-02-28T02:26:06;1.40;;;1.20;;
24137;SDS011;17947;50.672;6.076;2023-02-28T02:36:14;1.25;;;1.15;;
24137;SDS011;17947;50.672;6.076;2023-02-28T02:46:08;1.85;;;1.25;;
24137;SDS011;17947;50.672;6.076;2023-02-28T02:48:36;1.85;;;1.17;;
24137;SDS011;17947;50.672;6.076;2023-02-28T02:51:06;1.40;;;1.25;;
24137;SDS011;17947;50.672;6.076;2023-02-28T02:53:38;1.48;;;1.15;;
24137;SDS011;17947;50.672;6.076;2023-02-28T02:56:06;1.50;;;1.05;;
24137;SDS011;17947;50.672;6.076;2023-02-28T02:58:34;1.60;;;1.10;;
24137;SDS011;17947;50.672;6.076;2023-02-28T03:01:01;1.80;;;1.25;;
24137;SDS011;17947;50.672;6.076;2023-02-28T03:03:29;1.63;;;1.30;;
24137;SDS011;17947;50.672;6.076;2023-02-28T03:05:57;1.02;;;0.93;;
24137;SDS011;17947;50.672;6.076;2023-02-28T03:08:23;1.63;;;1.20;;
24137;SDS011;17947;50.672;6.076;2023-02-28T03:10:50;1.20;;;1.10;;
24137;SDS011;17947;50.672;6.076;2023-02-28T03:15:57;1.20;;;0.82;;
24137;SDS011;17947;50.672;6.076;2023-02-28T03:20:57;1.33;;;1.10;;
24137;SDS011;17947;50.672;6.076;2023-02-28T03:23:34;1.58;;;1.10;;
24137;SDS011;17947;50.672;6.076;2023-02-28T03:26:04;1.90;;;1.10;;
24137;SDS011;17947;50.672;6.076;2023-02-28T03:28:35;1.33;;;1.00;;
24137;SDS011;17947;50.672;6.076;2023-02-28T03:31:10;1.55;;;1.27;;
24137;SDS011;17947;50.672;6.076;2023-02-28T03:33:39;0.93;;;0.90;;
24137;SDS011;17947;50.672;6.076;2023-02-28T03:36:09;1.00;;;0.90;;
24137;SDS011;17947;50.672;6.076;2023-02-28T03:41:09;1.75;;;1.00;;
24137;SDS011;17947;50.672;6.076;2023-02-28T03:43:38;1.73;;;1.10;;
24137;SDS011;17947;50.672;6.076;2023-02-28T03:46:06;2.35;;;1.10;;
24137;SDS011;17947;50.672;6.076;2023-02-28T03:48:37;1.13;;;1.00;;
24137;SDS011;17947;50.672;6.076;2023-02-28T03:51:05;1.75;;;1.00;;
24137;SDS011;17947;50.672;6.076;2023-02-28T03:53:35;1.35;;;1.13;;
24137;SDS011;17947;50.672;6.076;2023-02-28T04:01:10;1.10;;;1.00;;
24137;SDS011;17947;50.672;6.076;2023-02-28T04:03:38;1.42;;;1.00;;
24137;SDS011;17947;50.672;6.076;2023-02-28T04:06:04;1.17;;;0.95;;
24137;SDS011;17947;50.672;6.076;2023-02-28T04:08:31;1.10;;;1.00;;
24137;SDS011;17947;50.672;6.076;2023-02-28T04:11:01;1.27;;;1.10;;
24137;SDS011;17947;50.672;6.076;2023-02-28T04:13:29;1.73;;;1.23;;
24137;SDS011;17947;50.672;6.076;2023-02-28T04:15:55;1.65;;;1.13;;
24137;SDS011;17947;50.672;6.076;2023-02-28T04:18:21;1.52;;;1.02;;
24137;SDS011;17947;50.672;6.076;2023-02-28T04:20:47;1.92;;;1.27;;
24137;SDS011;17947;50.672;6.076;2023-02-28T04:23:13;1.10;;;1.00;;
24137;SDS011;17947;50.672;6.076;2023-02-28T04:25:39;2.30;;;1.00;;
24137;SDS011;17947;50.672;6.076;2023-02-28T04:28:05;1.63;;;1.25;;
24137;SDS011;17947;50.672;6.076;2023-02-28T04:30:32;1.20;;;1.10;;
24137;SDS011;17947;50.672;6.076;2023-02-28T04:32:58;1.13;;;1.00;;
24137;SDS011;17947;50.672;6.076;2023-02-28T04:35:24;1.75;;;1.10;;
24137;SDS011;17947;50.672;6.076;2023-02-28T04:37:50;1.17;;;1.00;;
24137;SDS011;17947;50.672;6.076;2023-02-28T04:40:16;1.40;;;1.10;;
24137;SDS011;17947;50.672;6.076;2023-02-28T04:42:42;1.50;;;1.00;;
24137;SDS011;17947;50.672;6.076;2023-02-28T04:45:08;1.50;;;1.10;;
24137;SDS011;17947;50.672;6.076;2023-02-28T04:47:35;1.23;;;1.00;;
24137;SDS011;17947;50.672;6.076;2023-02-28T04:50:01;1.13;;;0.93;;
24137;SDS011;17947;50.672;6.076;2023-02-28T04:52:28;1.10;;;1.00;;
24137;SDS011;17947;50.672;6.076;2023-02-28T04:54:54;1.10;;;0.98;;
24137;SDS011;17947;50.672;6.076;2023-02-28T04:57:20;1.10;;;1.00;;
24137;SDS011;17947;50.672;6.076;2023-02-28T04:59:47;1.00;;;0.90;;
24137;SDS011;17947;50.672;6.076;2023-02-28T05:02:13;1.38;;;1.20;;
24137;SDS011;17947;50.672;6.076;2023-02-28T05:04:39;1.27;;;0.95;;
24137;SDS011;17947;50.672;6.076;2023-02-28T05:07:05;1.20;;;1.10;;
24137;SDS011;17947;50.672;6.076;2023-02-28T05:09:31;1.27;;;1.00;;
24137;SDS011;17947;50.672;6.076;2023-02-28T05:11:58;1.23;;;1.00;;
24137;SDS011;17947;50.672;6.076;2023-02-28T05:14:24;1.50;;;1.20;;
24137;SDS011;17947;50.672;6.076;2023-02-28T05:16:50;1.30;;;1.20;;
24137;SDS011;17947;50.672;6.076;2023-02-28T05:19:16;0.98;;;0.80;;
24137;SDS011;17947;50.672;6.076;2023-02-28T05:21:52;1.60;;;0.98;;
24137;SDS011;17947;50.672;6.076;2023-02-28T05:24:18;1.23;;;1.10;;
24137;SDS011;17947;50.672;6.076;2023-02-28T05:26:48;1.35;;;1.10;;
24137;SDS011;17947;50.672;6.076;2023-02-28T05:29:14;1.33;;;1.08;;
24137;SDS011;17947;50.672;6.076;2023-02-28T05:31:40;1.48;;;1.10;;
24137;SDS011;17947;50.672;6.076;2023-02-28T05:34:06;1.05;;;0.95;;
24137;SDS011;17947;50.672;6.076;2023-02-28T05:36:33;1.10;;;1.00;;
24137;SDS011;17947;50.672;6.076;2023-02-28T05:38:59;1.48;;;1.17;;
24137;SDS011;17947;50.672;6.076;2023-02-28T05:41:25;1.55;;;1.15;;
24137;SDS011;17947;50.672;6.076;2023-02-28T05:43:51;1.13;;;0.93;;
24137;SDS011;17947;50.672;6.076;2023-02-28T05:46:17;1.20;;;1.10;;
24137;SDS011;17947;50.672;6.076;2023-02-28T05:48:45;1.00;;;0.90;;
24137;SDS011;17947;50.672;6.076;2023-02-28T05:51:11;1.02;;;0.93;;
24137;SDS011;17947;50.672;6.076;2023-02-28T05:53:37;1.20;;;1.10;;
24137;SDS011;17947;50.672;6.076;2023-02-28T05:56:04;1.02;;;0.93;;
24137;SDS011;17947;50.672;6.076;2023-02-28T05:58:30;1.08;;;0.98;;
24137;SDS011;17947;50.672;6.076;2023-02-28T06:00:57;1.42;;;1.20;;
24137;SDS011;17947;50.672;6.076;2023-02-28T06:03:23;1.65;;;0.90;;
24137;SDS011;17947;50.672;6.076;2023-02-28T06:05:49;1.52;;;1.10;;
24137;SDS011;17947;50.672;6.076;2023-02-28T06:08:15;1.15;;;1.05;;
24137;SDS011;17947;50.672;6.076;2023-02-28T06:10:41;1.13;;;1.02;;
24137;SDS011;17947;50.672;6.076;2023-02-28T06:13:07;1.35;;;1.10;;
24137;SDS011;17947;50.672;6.076;2023-02-28T06:15:33;1.15;;;1.00;;
24137;SDS011;17947;50.672;6.076;2023-02-28T06:17:59;1.10;;;0.85;;
24137;SDS011;17947;50.672;6.076;2023-02-28T06:20:26;0.85;;;0.70;;
24137;SDS011;17947;50.672;6.076;2023-02-28T06:22:54;1.05;;;0.90;;
24137;SDS011;17947;50.672;6.076;2023-02-28T06:25:21;2.15;;;0.88;;
24137;SDS011;17947;50.672;6.076;2023-02-28T06:27:47;2.85;;;1.10;;
24137;SDS011;17947;50.672;6.076;2023-02-28T06:30:14;1.77;;;1.10;;
24137;SDS011;17947;50.672;6.076;2023-02-28T06:32:40;1.42;;;0.90;;
24137;SDS011;17947;50.672;6.076;2023-02-28T06:35:06;1.33;;;1.13;;
24137;SDS011;17947;50.672;6.076;2023-02-28T06:37:32;1.45;;;1.00;;
24137;SDS011;17947;50.672;6.076;2023-02-28T06:39:58;1.48;;;1.00;;
24137;SDS011;17947;50.672;6.076;2023-02-28T06:42:24;1.35;;;1.02;;
24137;SDS011;17947;50.672;6.076;2023-02-28T06:44:54;1.63;;;1.00;;
24137;SDS011;17947;50.672;6.076;2023-02-28T06:47:20;1.17;;;1.00;;
24137;SDS011;17947;50.672;6.076;2023-02-28T06:49:46;1.35;;;1.00;;
24137;SDS011;17947;50.672;6.076;2023-02-28T06:52:12;1.27;;;1.15;;
24137;SDS011;17947;50.672;6.076;2023-02-28T06:54:38;1.50;;;1.08;;
24137;SDS011;17947;50.672;6.076;2023-02-28T06:57:04;1.98;;;1.15;;
24137;SDS011;17947;50.672;6.076;2023-02-28T06:59:30;2.15;;;1.20;;
24137;SDS011;17947;50.672;6.076;2023-02-28T07:01:56;1.33;;;1.20;;
24137;SDS011;17947;50.672;6.076;2023-02-28T07:04:23;1.58;;;1.10;;
24137;SDS011;17947;50.672;6.076;2023-02-28T07:06:49;0.80;;;0.80;;
24137;SDS011;17947;50.672;6.076;2023-02-28T07:09:15;1.25;;;1.13;;
24137;SDS011;17947;50.672;6.076;2023-02-28T07:11:41;2.13;;;1.27;;
24137;SDS011;17947;50.672;6.076;2023-02-28T07:14:08;1.63;;;1.15;;
24137;SDS011;17947;50.672;6.076;2023-02-28T07:16:34;1.27;;;1.10;;
24137;SDS011;17947;50.672;6.076;2023-02-28T07:19:00;1.23;;;1.13;;
24137;SDS011;17947;50.672;6.076;2023-02-28T07:21:26;1.30;;;1.20;;
24137;SDS011;17947;50.672;6.076;2023-02-28T07:23:52;1.17;;;0.95;;
24137;SDS011;17947;50.672;6.076;2023-02-28T07:26:19;1.45;;;1.30;;
24137;SDS011;17947;50.672;6.076;2023-02-28T07:28:46;1.17;;;0.90;;
24137;SDS011;17947;50.672;6.076;2023-02-28T07:31:12;1.73;;;1.00;;
24137;SDS011;17947;50.672;6.076;2023-02-28T07:33:39;1.60;;;1.13;;
24137;SDS011;17947;50.672;6.076;2023-02-28T07:36:06;1.83;;;1.13;;
24137;SDS011;17947;50.672;6.076;2023-02-28T07:38:34;1.67;;;1.10;;
24137;SDS011;17947;50.672;6.076;2023-02-28T07:41:00;1.42;;;1.10;;
24137;SDS011;17947;50.672;6.076;2023-02-28T07:43:29;1.20;;;1.02;;
24137;SDS011;17947;50.672;6.076;2023-02-28T07:45:55;2.63;;;1.20;;
24137;SDS011;17947;50.672;6.076;2023-02-28T07:48:26;1.45;;;1.10;;
24137;SDS011;17947;50.672;6.076;2023-02-28T07:50:55;1.45;;;1.02;;
24137;SDS011;17947;50.672;6.076;2023-02-28T07:53:21;1.33;;;1.23;;
24137;SDS011;17947;50.672;6.076;2023-02-28T07:55:47;1.40;;;1.30;;
24137;SDS011;17947;50.672;6.076;2023-02-28T07:58:14;1.67;;;1.25;;
24137;SDS011;17947;50.672;6.076;2023-02-28T08:00:39;1.75;;;1.02;;
24137;SDS011;17947;50.672;6.076;2023-02-28T08:03:05;2.13;;;1.23;;
24137;SDS011;17947;50.672;6.076;2023-02-28T08:05:31;2.60;;;1.60;;
24137;SDS011;17947;50.672;6.076;2023-02-28T08:07:58;1.45;;;1.30;;
24137;SDS011;17947;50.672;6.076;2023-02-28T08:10:24;2.35;;;1.50;;
24137;SDS011;17947;50.672;6.076;2023-02-28T08:12:50;2.00;;;1.60;;
24137;SDS011;17947;50.672;6.076;2023-02-28T08:15:16;2.13;;;1.45;;
24137;SDS011;17947;50.672;6.076;2023-02-28T08:17:42;1.92;;;1.45;;
24137;SDS011;17947;50.672;6.076;2023-02-28T08:20:08;1.75;;;1.60;;
24137;SDS011;17947;50.672;6.076;2023-02-28T08:22:35;2.22;;;1.70;;
24137;SDS011;17947;50.672;6.076;2023-02-28T08:25:01;1.75;;;1.40;;
24137;SDS011;17947;50.672;6.076;2023-02-28T08:27:27;1.52;;;1.38;;
24137;SDS011;17947;50.672;6.076;2023-02-28T08:29:53;1.65;;;1.45;;
24137;SDS011;17947;50.672;6.076;2023-02-28T08:32:19;2.10;;;1.52;;
24137;SDS011;17947;50.672;6.076;2023-02-28T08:34:45;1.67;;;1.35;;
24137;SDS011;17947;50.672;6.076;2023-02-28T08:37:11;2.33;;;1.40;;
24137;SDS011;17947;50.672;6.076;2023-02-28T08:39:37;2.05;;;1.40;;
24137;SDS011;17947;50.672;6.076;2023-02-28T08:42:03;2.08;;;1.70;;
24137;SDS011;17947;50.672;6.076;2023-02-28T08:44:29;1.58;;;1.48;;
24137;SDS011;17947;50.672;6.076;2023-02-28T08:46:55;2.40;;;1.40;;
24137;SDS011;17947;50.672;6.076;2023-02-28T08:49:21;1.90;;;1.50;;
24137;SDS011;17947;50.672;6.076;2023-02-28T08:51:47;1.58;;;1.23;;
24137;SDS011;17947;50.672;6.076;2023-02-28T08:54:13;1.40;;;1.30;;
24137;SDS011;17947;50.672;6.076;2023-02-28T08:56:45;1.63;;;1.30;;
24137;SDS011;17947;50.672;6.076;2023-02-28T08:59:12;1.42;;;1.10;;
24137;SDS011;17947;50.672;6.076;2023-02-28T09:01:38;1.40;;;1.17;;
24137;SDS011;17947;50.672;6.076;2023-02-28T09:04:04;1.30;;;1.17;;
24137;SDS011;17947;50.672;6.076;2023-02-28T09:06:32;1.17;;;1.08;;
24137;SDS011;17947;50.672;6.076;2023-02-28T09:08:58;2.00;;;1.10;;
24137;SDS011;17947;50.672;6.076;2023-02-28T09:11:25;1.23;;;1.10;;
24137;SDS011;17947;50.672;6.076;2023-02-28T09:13:52;1.27;;;1.17;;
24137;SDS011;17947;50.672;6.076;2023-02-28T09:16:18;1.15;;;1.05;;
24137;SDS011;17947;50.672;6.076;2023-02-28T09:18:44;1.20;;;1.08;;
24137;SDS011;17947;50.672;6.076;2023-02-28T09:21:13;1.50;;;1.13;;
24137;SDS011;17947;50.672;6.076;2023-02-28T09:23:41;1.63;;;1.15;;
24137;SDS011;17947;50.672;6.076;2023-02-28T09:26:07;1.23;;;1.10;;
24137;SDS011;17947;50.672;6.076;2023-02-28T09:28:33;1.65;;;1.20;;
24137;SDS011;17947;50.672;6.076;2023-02-28T09:30:59;1.75;;;1.00;;
24137;SDS011;17947;50.672;6.076;2023-02-28T09:33:25;1.00;;;0.90;;
24137;SDS011;17947;50.672;6.076;2023-02-28T09:35:57;1.50;;;1.02;;
24137;SDS011;17947;50.672;6.076;2023-02-28T09:38:23;1.02;;;0.95;;
24137;SDS011;17947;50.672;6.076;2023-02-28T09:40:56;1.05;;;0.95;;
24137;SDS011;17947;50.672;6.076;2023-02-28T09:43:24;1.20;;;1.02;;
24137;SDS011;17947;50.672;6.076;2023-02-28T09:46:14;1.17;;;1.08;;
24137;SDS011;17947;50.672;6.076;2023-02-28T09:48:41;1.30;;;1.10;;
24137;SDS011;17947;50.672;6.076;2023-02-28T09:51:28;1.20;;;1.00;;
24137;SDS011;17947;50.672;6.076;2023-02-28T09:53:56;1.10;;;1.00;;
24137;SDS011;17947;50.672;6.076;2023-02-28T09:56:25;1.15;;;1.00;;
24137;SDS011;17947;50.672;6.076;2023-02-28T10:04:32;1.27;;;1.00;;
24137;SDS011;17947;50.672;6.076;2023-02-28T10:06:54;1.10;;;1.00;;
24137;SDS011;17947;50.672;6.076;2023-02-28T10:09:26;1.30;;;1.20;;
24137;SDS011;17947;50.672;6.076;2023-02-28T10:11:54;1.10;;;1.00;;
24137;SDS011;17947;50.672;6.076;2023-02-28T10:14:23;1.23;;;0.90;;
24137;SDS011;17947;50.672;6.076;2023-02-28T10:16:51;1.35;;;0.90;;
24137;SDS011;17947;50.672;6.076;2023-02-28T10:24:35;0.85;;;0.80;;
24137;SDS011;17947;50.672;6.076;2023-02-28T10:27:24;1.02;;;0.90;;
24137;SDS011;17947;50.672;6.076;2023-02-28T10:29:49;1.27;;;0.90;;
24137;SDS011;17947;50.672;6.076;2023-02-28T10:32:16;1.13;;;0.98;;
24137;SDS011;17947;50.672;6.076;2023-02-28T10:34:43;0.80;;;0.80;;
24137;SDS011;17947;50.672;6.076;2023-02-28T10:37:10;1.45;;;0.98;;
24137;SDS011;17947;50.672;6.076;2023-02-28T10:39:41;0.80;;;0.80;;
24137;SDS011;17947;50.672;6.076;2023-02-28T10:45:12;1.17;;;0.90;;
24137;SDS011;17947;50.672;6.076;2023-02-28T10:47:40;1.13;;;0.80;;
24137;SDS011;17947;50.672;6.076;2023-02-28T10:50:26;0.77;;;0.77;;
24137;SDS011;17947;50.672;6.076;2023-02-28T10:52:52;0.60;;;0.60;;
24137;SDS011;17947;50.672;6.076;2023-02-28T10:57:45;2.05;;;0.90;;
24137;SDS011;17947;50.672;6.076;2023-02-28T11:00:14;0.95;;;0.82;;
24137;SDS011;17947;50.672;6.076;2023-02-28T11:02:41;0.90;;;0.70;;
24137;SDS011;17947;50.672;6.076;2023-02-28T11:07:51;1.60;;;1.02;;
24137;SDS011;17947;50.672;6.076;2023-02-28T11:10:19;0.93;;;0.90;;
24137;SDS011;17947;50.672;6.076;2023-02-28T11:12:46;0.80;;;0.80;;
24137;SDS011;17947;50.672;6.076;2023-02-28T11:15:31;0.90;;;0.75;;
24137;SDS011;17947;50.672;6.076;2023-02-28T11:17:59;0.88;;;0.82;;
24137;SDS011;17947;50.672;6.076;2023-02-28T11:20:27;0.73;;;0.70;;
24137;SDS011;17947;50.672;6.076;2023-02-28T11:22:53;0.70;;;0.70;;
24137;SDS011;17947;50.672;6.076;2023-02-28T11:25:30;0.93;;;0.70;;
24137;SDS011;17947;50.672;6.076;2023-02-28T11:27:58;0.80;;;0.70;;
24137;SDS011;17947;50.672;6.076;2023-02-28T11:30:33;1.23;;;0.80;;
24137;SDS011;17947;50.672;6.076;2023-02-28T11:32:59;0.60;;;0.60;;
24137;SDS011;17947;50.672;6.076;2023-02-28T11:35:30;0.88;;;0.85;;
24137;SDS011;17947;50.672;6.076;2023-02-28T11:37:56;0.80;;;0.80;;
24137;SDS011;17947;50.672;6.076;2023-02-28T11:43:35;0.85;;;0.82;;
24137;SDS011;17947;50.672;6.076;2023-02-28T11:46:04;0.65;;;0.65;;
24137;SDS011;17947;50.672;6.076;2023-02-28T11:48:36;0.70;;;0.70;;
24137;SDS011;17947;50.672;6.076;2023-02-28T11:56:05;0.93;;;0.75;;
24137;SDS011;17947;50.672;6.076;2023-02-28T11:58:33;0.70;;;0.70;;
24137;SDS011;17947;50.672;6.076;2023-02-28T12:06:23;0.80;;;0.80;;
24137;SDS011;17947;50.672;6.076;2023-02-28T12:28:58;0.85;;;0.60;;
24137;SDS011;17947;50.672;6.076;2023-02-28T12:31:33;0.70;;;0.70;;
24137;SDS011;17947;50.672;6.076;2023-02-28T12:34:06;0.50;;;0.50;;
24137;SDS011;17947;50.672;6.076;2023-02-28T12:36:33;0.70;;;0.70;;
24137;SDS011;17947;50.672;6.076;2023-02-28T12:39:08;0.70;;;0.70;;
24137;SDS011;17947;50.672;6.076;2023-02-28T12:41:40;0.73;;;0.70;;
24137;SDS011;17947;50.672;6.076;2023-02-28T12:44:09;0.50;;;0.50;;
24137;SDS011;17947;50.672;6.076;2023-02-28T12:46:47;0.82;;;0.77;;
24137;SDS011;17947;50.672;6.076;2023-02-28T12:51:40;0.60;;;0.60;;
24137;SDS011;17947;50.672;6.076;2023-02-28T12:56:34;0.70;;;0.70;;
24137;SDS011;17947;50.672;6.076;2023-02-28T13:10:38;0.65;;;0.60;;
24137;SDS011;17947;50.672;6.076;2023-02-28T13:13:04;0.60;;;0.60;;
24137;SDS011;17947;50.672;6.076;2023-02-28T13:15:31;0.95;;;0.80;;
24137;SDS011;17947;50.672;6.076;2023-02-28T13:18:00;0.77;;;0.73;;
24137;SDS011;17947;50.672;6.076;2023-02-28T13:20:32;0.60;;;0.60;;
24137;SDS011;17947;50.672;6.076;2023-02-28T13:22:59;0.50;;;0.50;;
24137;SDS011;17947;50.672;6.076;2023-02-28T13:28:03;0.73;;;0.70;;
24137;SDS011;17947;50.672;6.076;2023-02-28T13:38:37;0.60;;;0.60;;
24137;SDS011;17947;50.672;6.076;2023-02-28T13:46:30;0.60;;;0.60;;
24137;SDS011;17947;50.672;6.076;2023-02-28T13:49:17;0.70;;;0.70;;
24137;SDS011;17947;50.672;6.076;2023-02-28T13:51:44;0.80;;;0.70;;
24137;SDS011;17947;50.672;6.076;2023-02-28T13:57:10;0.75;;;0.65;;
24137;SDS011;17947;50.672;6.076;2023-02-28T14:05:01;0.77;;;0.73;;
24137;SDS011;17947;50.672;6.076;2023-02-28T14:07:30;0.68;;;0.68;;
24137;SDS011;17947;50.672;6.076;2023-02-28T14:10:02;0.60;;;0.60;;
24137;SDS011;17947;50.672;6.076;2023-02-28T14:17:54;0.60;;;0.60;;
24137;SDS011;17947;50.672;6.076;2023-02-28T14:20:21;0.70;;;0.60;;
24137;SDS011;17947;50.672;6.076;2023-02-28T14:23:02;0.73;;;0.60;;
24137;SDS011;17947;50.672;6.076;2023-02-28T14:28:27;0.60;;;0.60;;
24137;SDS011;17947;50.672;6.076;2023-02-28T14:31:07;1.40;;;0.90;;
24137;SDS011;17947;50.672;6.076;2023-02-28T14:33:45;0.60;;;0.60;;
24137;SDS011;17947;50.672;6.076;2023-02-28T14:36:21;0.77;;;0.52;;
24137;SDS011;17947;50.672;6.076;2023-02-28T14:38:58;0.50;;;0.50;;
24137;SDS011;17947;50.672;6.076;2023-02-28T14:41:29;0.52;;;0.52;;
24137;SDS011;17947;50.672;6.076;2023-02-28T14:43:57;0.60;;;0.60;;
24137;SDS011;17947;50.672;6.076;2023-02-28T14:46:25;0.70;;;0.70;;
24137;SDS011;17947;50.672;6.076;2023-02-28T14:48:52;0.93;;;0.80;;
24137;SDS011;17947;50.672;6.076;2023-02-28T14:51:21;0.70;;;0.70;;
24137;SDS011;17947;50.672;6.076;2023-02-28T14:53:52;0.65;;;0.65;;
24137;SDS011;17947;50.672;6.076;2023-02-28T14:56:22;0.80;;;0.80;;
24137;SDS011;17947;50.672;6.076;2023-02-28T14:58:54;0.57;;;0.57;;
24137;SDS011;17947;50.672;6.076;2023-02-28T15:01:21;0.93;;;0.70;;
24137;SDS011;17947;50.672;6.076;2023-02-28T15:03:47;0.60;;;0.60;;
24137;SDS011;17947;50.672;6.076;2023-02-28T15:06:14;0.73;;;0.70;;
24137;SDS011;17947;50.672;6.076;2023-02-28T15:08:42;0.70;;;0.70;;
24137;SDS011;17947;50.672;6.076;2023-02-28T15:11:18;0.70;;;0.70;;
24137;SDS011;17947;50.672;6.076;2023-02-28T15:13:47;0.80;;;0.80;;
24137;SDS011;17947;50.672;6.076;2023-02-28T15:18:43;0.75;;;0.60;;
24137;SDS011;17947;50.672;6.076;2023-02-28T15:21:15;0.95;;;0.70;;
24137;SDS011;17947;50.672;6.076;2023-02-28T15:23:42;0.60;;;0.60;;
24137;SDS011;17947;50.672;6.076;2023-02-28T15:26:12;1.00;;;0.70;;
24137;SDS011;17947;50.672;6.076;2023-02-28T15:28:39;0.82;;;0.60;;
24137;SDS011;17947;50.672;6.076;2023-02-28T15:31:17;0.60;;;0.60;;
24137;SDS011;17947;50.672;6.076;2023-02-28T15:33:57;1.05;;;0.70;;
24137;SDS011;17947;50.672;6.076;2023-02-28T15:36:29;0.85;;;0.80;;
24137;SDS011;17947;50.672;6.076;2023-02-28T15:38:57;0.68;;;0.68;;
24137;SDS011;17947;50.672;6.076;2023-02-28T15:41:27;0.80;;;0.75;;
24137;SDS011;17947;50.672;6.076;2023-02-28T15:46:39;0.80;;;0.80;;
24137;SDS011;17947;50.672;6.076;2023-02-28T15:49:12;0.98;;;0.90;;
24137;SDS011;17947;50.672;6.076;2023-02-28T15:51:40;0.70;;;0.65;;
24137;SDS011;17947;50.672;6.076;2023-02-28T15:54:07;0.70;;;0.70;;
24137;SDS011;17947;50.672;6.076;2023-02-28T15:56:35;0.95;;;0.80;;
24137;SDS011;17947;50.672;6.076;2023-02-28T15:59:05;0.68;;;0.68;;
24137;SDS011;17947;50.672;6.076;2023-02-28T16:01:35;0.85;;;0.60;;
24137;SDS011;17947;50.672;6.076;2023-02-28T16:04:18;0.60;;;0.60;;
24137;SDS011;17947;50.672;6.076;2023-02-28T16:06:45;0.80;;;0.80;;
24137;SDS011;17947;50.672;6.076;2023-02-28T16:09:12;0.60;;;0.60;;
24137;SDS011;17947;50.672;6.076;2023-02-28T16:11:46;0.65;;;0.65;;
24137;SDS011;17947;50.672;6.076;2023-02-28T16:14:13;0.75;;;0.70;;
24137;SDS011;17947;50.672;6.076;2023-02-28T16:16:44;0.90;;;0.80;;
24137;SDS011;17947;50.672;6.076;2023-02-28T16:19:11;1.05;;;0.80;;
24137;SDS011;17947;50.672;6.076;2023-02-28T16:21:37;0.80;;;0.80;;
24137;SDS011;17947;50.672;6.076;2023-02-28T16:24:02;0.93;;;0.80;;
24137;SDS011;17947;50.672;6.076;2023-02-28T16:26:29;0.73;;;0.73;;
24137;SDS011;17947;50.672;6.076;2023-02-28T16:28:55;0.80;;;0.70;;
24137;SDS011;17947;50.672;6.076;2023-02-28T16:31:21;1.15;;;0.82;;
24137;SDS011;17947;50.672;6.076;2023-02-28T16:33:47;0.82;;;0.80;;
24137;SDS011;17947;50.672;6.076;2023-02-28T16:36:20;0.68;;;0.68;;
24137;SDS011;17947;50.672;6.076;2023-02-28T16:38:47;0.80;;;0.80;;
24137;SDS011;17947;50.672;6.076;2023-02-28T16:41:20;0.80;;;0.80;;
24137;SDS011;17947;50.672;6.076;2023-02-28T16:43:47;0.85;;;0.80;;
24137;SDS011;17947;50.672;6.076;2023-02-28T16:46:14;0.80;;;0.80;;
24137;SDS011;17947;50.672;6.076;2023-02-28T16:48:41;0.80;;;0.80;;
24137;SDS011;17947;50.672;6.076;2023-02-28T16:51:11;0.90;;;0.90;;
24137;SDS011;17947;50.672;6.076;2023-02-28T16:53:37;0.80;;;0.80;;
24137;SDS011;17947;50.672;6.076;2023-02-28T16:56:04;0.90;;;0.75;;
24137;SDS011;17947;50.672;6.076;2023-02-28T16:58:32;0.82;;;0.82;;
24137;SDS011;17947;50.672;6.076;2023-02-28T17:01:00;1.25;;;0.80;;
24137;SDS011;17947;50.672;6.076;2023-02-28T17:03:27;1.15;;;1.05;;
24137;SDS011;17947;50.672;6.076;2023-02-28T17:05:53;0.82;;;0.82;;
24137;SDS011;17947;50.672;6.076;2023-02-28T17:08:19;1.10;;;0.90;;
24137;SDS011;17947;50.672;6.076;2023-02-28T17:10:46;0.93;;;0.93;;
24137;SDS011;17947;50.672;6.076;2023-02-28T17:13:12;1.05;;;1.00;;
24137;SDS011;17947;50.672;6.076;2023-02-28T17:15:38;1.27;;;0.88;;
24137;SDS011;17947;50.672;6.076;2023-02-28T17:18:05;1.20;;;1.10;;